Time;durP1;ratioP1;P1;durP2;ratioP2;P2;SDS_P1;SDS_P2;PMS_P1;PMS_P2;Temp;Humidity;BMP_temperature;BMP_pressure;BME280_temperature;BME280_humidity;BME280_pressure;Samples;Min_cycle;Max_cycle;Signal;HPM_P1;HPM_P2
2020/12/12 00:01:29;;;;;;;2.28;1.83;;;7.00;99.90;;;;;;5085529;28;20036;-45
2020/12/12 00:03:54;;;;;;;2.15;1.88;;;7.00;99.90;;;;;;5084015;28;20051;-49
2020/12/12 00:06:21;;;;;;;3.13;2.40;;;6.90;99.90;;;;;;5079221;28;20037;-46
2020/12/12 00:08:47;;;;;;;2.03;1.83;;;7.00;99.90;;;;;;5064291;28;20405;-49
2020/12/12 00:11:12;;;;;;;2.60;2.22;;;6.90;99.90;;;;;;5079638;28;20047;-49
2020/12/12 00:13:38;;;;;;;3.13;2.75;;;6.90;99.90;;;;;;5084720;28;20033;-48
2020/12/12 00:16:06;;;;;;;3.08;2.60;;;6.90;99.90;;;;;;5076390;28;20032;-46
2020/12/12 00:18:32;;;;;;;3.10;2.58;;;6.90;99.90;;;;;;5064629;28;20029;-45
2020/12/12 00:20:58;;;;;;;5.53;3.05;;;6.90;99.90;;;;;;5065022;28;20036;-47
2020/12/12 00:23:25;;;;;;;3.42;2.72;;;6.90;99.90;;;;;;5063955;28;20028;-46
2020/12/12 00:25:52;;;;;;;3.33;3.03;;;6.90;99.90;;;;;;5062413;28;20531;-48
2020/12/12 00:28:18;;;;;;;3.92;3.10;;;6.80;99.90;;;;;;5064279;28;20103;-50
2020/12/12 00:30:43;;;;;;;4.95;3.53;;;6.90;99.90;;;;;;5064107;28;20031;-46
2020/12/12 00:33:09;;;;;;;5.53;3.50;;;6.90;99.90;;;;;;5064545;28;20103;-46
2020/12/12 00:35:35;;;;;;;4.43;3.38;;;6.90;99.90;;;;;;5064373;28;20032;-47
2020/12/12 00:38:00;;;;;;;2.80;2.50;;;6.80;99.90;;;;;;5066187;28;20033;-49
2020/12/12 00:40:26;;;;;;;2.85;2.50;;;6.80;99.90;;;;;;5073099;28;20395;-47
2020/12/12 00:42:52;;;;;;;3.13;2.55;;;6.80;99.90;;;;;;5067638;28;20059;-49
2020/12/12 00:45:18;;;;;;;3.33;2.47;;;6.80;99.90;;;;;;5084291;28;20074;-49
2020/12/12 00:47:44;;;;;;;2.75;2.45;;;6.80;99.90;;;;;;5083709;28;20062;-50
2020/12/12 00:50:13;;;;;;;3.90;3.10;;;;;;;;;;5083294;28;20054;-47
2020/12/12 00:52:39;;;;;;;3.45;3.13;;;6.10;99.90;;;;;;5063397;28;20031;-48
2020/12/12 00:55:04;;;;;;;4.82;3.78;;;6.90;99.90;;;;;;5064295;28;20025;-49
2020/12/12 00:57:30;;;;;;;3.17;2.80;;;6.90;99.90;;;;;;5077112;28;20028;-50
2020/12/12 00:59:55;;;;;;;4.72;3.47;;;7.00;99.90;;;;;;5084571;28;20035;-47
2020/12/12 01:02:21;;;;;;;3.50;2.97;;;6.90;99.90;;;;;;5065698;28;20093;-48
2020/12/12 01:04:48;;;;;;;4.63;2.80;;;7.00;99.90;;;;;;5075436;28;20159;-47
2020/12/12 01:07:13;;;;;;;3.92;3.10;;;7.00;99.90;;;;;;5067953;28;20025;-50
2020/12/12 01:09:39;;;;;;;2.97;2.67;;;6.90;99.90;;;;;;5073417;28;20516;-47
2020/12/12 01:12:06;;;;;;;2.92;2.58;;;6.90;99.90;;;;;;5071236;28;20451;-48
2020/12/12 01:14:31;;;;;;;2.95;2.65;;;6.90;99.90;;;;;;5064028;28;20032;-51
2020/12/12 01:17:00;;;;;;;3.75;2.88;;;7.00;99.90;;;;;;5067746;28;20078;-52
2020/12/12 01:19:26;;;;;;;3.53;2.88;;;7.00;99.90;;;;;;5063876;28;20031;-49
2020/12/12 01:21:55;;;;;;;3.25;2.70;;;7.00;99.90;;;;;;5066924;28;20610;-50
2020/12/12 01:24:20;;;;;;;5.35;4.30;;;6.80;99.90;;;;;;5078096;28;20051;-50
2020/12/12 01:26:47;;;;;;;7.22;3.90;;;7.00;99.90;;;;;;5073483;28;20028;-52
2020/12/12 01:29:13;;;;;;;6.10;4.60;;;7.00;99.90;;;;;;5071461;28;20043;-48
2020/12/12 01:31:40;;;;;;;5.88;3.47;;;6.80;99.90;;;;;;5063797;28;20699;-49
2020/12/12 01:34:05;;;;;;;3.97;3.13;;;6.70;99.90;;;;;;5063836;28;20032;-50
2020/12/12 01:36:32;;;;;;;3.80;2.95;;;6.90;99.90;;;;;;5064138;28;20044;-51
2020/12/12 01:38:58;;;;;;;3.80;3.33;;;6.90;99.90;;;;;;5063889;28;20040;-50
2020/12/12 01:41:24;;;;;;;4.07;3.20;;;6.80;99.90;;;;;;5072864;28;20029;-49
2020/12/12 01:43:52;;;;;;;3.85;3.00;;;6.80;99.90;;;;;;5071401;28;20025;-49
2020/12/12 01:46:27;;;;;;;4.30;3.13;;;6.80;99.90;;;;;;5064225;28;20021;-51
2020/12/12 01:48:55;;;;;;;4.93;3.47;;;6.80;99.90;;;;;;5082604;28;20421;-48
2020/12/12 01:51:24;;;;;;;4.28;3.20;;;6.90;99.90;;;;;;5084042;28;20028;-49
2020/12/12 01:53:56;;;;;;;3.78;3.38;;;6.80;99.90;;;;;;5074568;28;20057;-49
2020/12/12 01:56:23;;;;;;;4.10;3.70;;;6.80;99.90;;;;;;5076676;28;20024;-48
2020/12/12 01:58:48;;;;;;;5.35;4.03;;;6.80;99.90;;;;;;5063080;28;20470;-48
2020/12/12 02:01:15;;;;;;;3.83;3.10;;;6.80;99.90;;;;;;5066342;28;20056;-52
2020/12/12 02:03:43;;;;;;;5.20;3.47;;;6.80;99.90;;;;;;5067320;28;20038;-52
2020/12/12 02:06:13;;;;;;;3.78;3.28;;;6.80;99.90;;;;;;5079121;28;20024;-51
2020/12/12 02:08:39;;;;;;;3.60;3.13;;;6.80;99.90;;;;;;5087055;28;20090;-51
2020/12/12 02:11:15;;;;;;;4.53;3.40;;;6.80;99.90;;;;;;5081516;28;20031;-51
2020/12/12 02:13:45;;;;;;;3.45;3.10;;;6.80;99.90;;;;;;5086254;28;20031;-48
2020/12/12 02:16:13;;;;;;;3.65;3.10;;;6.80;99.90;;;;;;5077750;28;20033;-48
2020/12/12 02:18:39;;;;;;;2.97;2.67;;;6.80;99.90;;;;;;5066435;28;20031;-48
2020/12/12 02:21:05;;;;;;;2.80;2.53;;;6.80;99.90;;;;;;5075512;28;20492;-51
2020/12/12 02:23:31;;;;;;;3.05;2.55;;;7.00;99.90;;;;;;5080238;28;20570;-49
2020/12/12 02:25:57;;;;;;;3.28;2.97;;;7.10;99.90;;;;;;5066874;28;20056;-49
2020/12/12 02:28:30;;;;;;;4.32;3.22;;;7.10;99.90;;;;;;5066401;28;20032;-50
2020/12/12 02:30:55;;;;;;;4.75;3.30;;;7.00;99.90;;;;;;5067400;28;20021;-50
2020/12/12 02:33:21;;;;;;;5.93;4.30;;;7.00;99.90;;;;;;5066288;28;20036;-49
2020/12/12 02:35:47;;;;;;;5.28;3.92;;;7.00;99.90;;;;;;5069303;28;20061;-48
2020/12/12 02:38:12;;;;;;;3.80;3.40;;;7.00;99.90;;;;;;5066319;28;20070;-49
2020/12/12 02:40:39;;;;;;;5.40;4.38;;;7.00;99.90;;;;;;5065738;28;20069;-49
2020/12/12 02:43:10;;;;;;;4.88;3.63;;;7.10;99.90;;;;;;5066328;28;20040;-51
2020/12/12 02:45:35;;;;;;;4.30;3.53;;;7.00;99.90;;;;;;5084202;28;20030;-52
2020/12/12 02:48:01;;;;;;;3.50;3.03;;;7.00;99.90;;;;;;5071620;28;20040;-48
2020/12/12 02:50:27;;;;;;;3.55;3.10;;;7.10;99.90;;;;;;5070050;28;20024;-48
2020/12/12 02:52:54;;;;;;;3.63;3.10;;;7.00;99.90;;;;;;5066021;28;20458;-51
2020/12/12 02:55:21;;;;;;;3.95;3.13;;;7.00;99.90;;;;;;5066398;28;20502;-48
2020/12/12 02:57:47;;;;;;;3.47;2.83;;;7.00;99.90;;;;;;5083802;28;20485;-51
2020/12/12 03:00:17;;;;;;;4.63;3.08;;;7.10;99.90;;;;;;5085657;28;20185;-49
2020/12/12 03:02:42;;;;;;;3.60;2.92;;;6.90;99.90;;;;;;5085797;28;20020;-48
2020/12/12 03:05:08;;;;;;;4.10;2.30;;;7.10;99.90;;;;;;5085570;28;20027;-49
2020/12/12 03:07:34;;;;;;;3.35;2.80;;;7.20;99.90;;;;;;5070980;28;20039;-48
2020/12/12 03:10:04;;;;;;;2.50;2.30;;;7.00;99.90;;;;;;5084107;28;20024;-49
2020/12/12 03:12:30;;;;;;;3.08;1.90;;;7.10;99.90;;;;;;5085953;28;20032;-49
2020/12/12 03:14:55;;;;;;;4.03;2.90;;;7.10;99.90;;;;;;5086653;28;20428;-48
2020/12/12 03:17:21;;;;;;;4.35;2.60;;;7.10;99.90;;;;;;5067149;28;20044;-48
2020/12/12 03:19:47;;;;;;;2.40;2.20;;;7.00;99.90;;;;;;5065781;28;20040;-49
2020/12/12 03:22:12;;;;;;;5.22;3.42;;;7.10;99.90;;;;;;5065809;28;20032;-51
2020/12/12 03:24:38;;;;;;;4.60;3.22;;;7.00;99.90;;;;;;5065724;28;20445;-50
2020/12/12 03:27:04;;;;;;;4.05;3.00;;;7.10;99.90;;;;;;5065442;28;20028;-49
2020/12/12 03:29:29;;;;;;;2.97;2.28;;;7.10;99.90;;;;;;5064962;28;20031;-50
2020/12/12 03:31:55;;;;;;;2.80;2.50;;;7.10;99.90;;;;;;5074384;28;20031;-49
2020/12/12 03:34:20;;;;;;;3.30;2.50;;;7.00;99.90;;;;;;5083722;28;20198;-50
2020/12/12 03:36:46;;;;;;;3.42;2.75;;;7.00;99.90;;;;;;5065017;28;20025;-49
2020/12/12 03:39:12;;;;;;;9.32;4.82;;;7.00;99.90;;;;;;5065570;28;20028;-49
2020/12/12 03:41:37;;;;;;;3.63;2.58;;;7.10;99.90;;;;;;5064631;28;20415;-52
2020/12/12 03:44:04;;;;;;;2.53;2.30;;;7.00;99.90;;;;;;5064952;28;20031;-50
2020/12/12 03:46:31;;;;;;;3.97;3.35;;;7.20;99.90;;;;;;5064267;28;20108;-52
2020/12/12 03:48:56;;;;;;;3.10;2.60;;;6.90;99.90;;;;;;5065466;28;20036;-49
2020/12/12 03:51:22;;;;;;;3.22;2.03;;;7.00;99.90;;;;;;5074515;28;20021;-47
2020/12/12 03:53:48;;;;;;;2.72;2.42;;;7.00;99.90;;;;;;5085230;28;20032;-48
2020/12/12 03:56:14;;;;;;;2.65;1.80;;;7.10;99.90;;;;;;5085227;28;20052;-50
2020/12/12 03:58:40;;;;;;;1.65;1.55;;;7.10;99.90;;;;;;5072615;28;20016;-51
2020/12/12 04:01:08;;;;;;;1.52;1.42;;;7.00;99.90;;;;;;5064350;28;20388;-50
2020/12/12 04:03:34;;;;;;;2.83;1.80;;;7.10;99.90;;;;;;5076193;28;20020;-49
2020/12/12 04:06:00;;;;;;;1.65;1.30;;;7.10;99.90;;;;;;5084827;28;20028;-48
2020/12/12 04:08:27;;;;;;;1.65;1.50;;;7.20;99.90;;;;;;5081284;28;20707;-49
2020/12/12 04:10:53;;;;;;;2.40;1.75;;;7.10;99.90;;;;;;5064443;28;20111;-51
2020/12/12 04:13:18;;;;;;;2.00;1.40;;;7.10;99.90;;;;;;5064854;28;20665;-50
2020/12/12 04:15:44;;;;;;;2.08;1.88;;;7.20;99.90;;;;;;5064191;28;20096;-52
2020/12/12 04:18:10;;;;;;;3.20;2.50;;;7.10;99.90;;;;;;5064109;28;20087;-48
2020/12/12 04:20:35;;;;;;;2.45;2.10;;;7.10;99.90;;;;;;5082828;28;20100;-49
2020/12/12 04:23:01;;;;;;;2.40;2.05;;;7.10;99.90;;;;;;5083630;28;20578;-48
2020/12/12 04:25:26;;;;;;;1.90;1.75;;;7.10;99.90;;;;;;5082300;28;20020;-49
2020/12/12 04:27:53;;;;;;;2.78;2.10;;;7.00;99.90;;;;;;5064298;28;20031;-48
2020/12/12 04:30:19;;;;;;;2.85;1.90;;;7.00;99.90;;;;;;5072361;28;20064;-49
2020/12/12 04:32:44;;;;;;;2.42;1.80;;;6.90;99.90;;;;;;5081021;28;20047;-50
2020/12/12 04:35:10;;;;;;;5.57;2.03;;;7.00;99.90;;;;;;5084729;28;20028;-49
2020/12/12 04:37:36;;;;;;;2.95;2.22;;;6.90;99.90;;;;;;5063650;28;20021;-49
2020/12/12 04:40:04;;;;;;;3.53;2.45;;;7.00;99.90;;;;;;5068020;28;20039;-49
2020/12/12 04:42:35;;;;;;;2.75;2.25;;;6.90;99.90;;;;;;5066022;28;20541;-49
2020/12/12 04:45:02;;;;;;;2.97;2.10;;;6.90;99.90;;;;;;5064265;28;20020;-48
2020/12/12 04:47:28;;;;;;;1.92;1.70;;;6.90;99.90;;;;;;5082111;28;20016;-49
2020/12/12 04:49:54;;;;;;;3.17;2.00;;;7.00;99.90;;;;;;5084178;28;20020;-48
2020/12/12 04:52:23;;;;;;;2.05;1.80;;;7.00;99.90;;;;;;5066708;28;20460;-48
2020/12/12 04:54:51;;;;;;;3.03;2.38;;;7.00;99.90;;;;;;5071151;28;20024;-47
2020/12/12 04:57:18;;;;;;;3.58;2.20;;;6.90;99.90;;;;;;5082315;28;20040;-50
2020/12/12 04:59:44;;;;;;;1.65;1.55;;;6.90;99.90;;;;;;5082138;28;20159;-48
2020/12/12 05:02:14;;;;;;;2.97;1.80;;;6.90;99.90;;;;;;5072080;28;20178;-47
2020/12/12 05:04:41;;;;;;;1.60;1.50;;;7.00;99.90;;;;;;5064343;28;20052;-48
2020/12/12 05:07:08;;;;;;;2.10;1.52;;;7.00;99.90;;;;;;5063683;28;20475;-48
2020/12/12 05:09:34;;;;;;;2.00;1.80;;;7.00;99.90;;;;;;5069360;28;20070;-50
2020/12/12 05:12:00;;;;;;;1.90;1.55;;;6.90;99.90;;;;;;5067825;28;20072;-50
2020/12/12 05:14:25;;;;;;;2.20;1.90;;;6.80;99.90;;;;;;5064361;28;20063;-49
2020/12/12 05:16:54;;;;;;;2.03;1.73;;;6.90;99.90;;;;;;5063242;28;20037;-49
2020/12/12 05:19:20;;;;;;;1.75;1.60;;;6.90;99.90;;;;;;5064239;28;20029;-48
2020/12/12 05:21:53;;;;;;;2.13;1.67;;;6.80;99.90;;;;;;5063771;28;20554;-48
2020/12/12 05:24:19;;;;;;;2.63;1.52;;;7.00;99.90;;;;;;5062635;28;20397;-49
2020/12/12 05:26:45;;;;;;;2.13;1.90;;;7.00;99.90;;;;;;5062345;28;20024;-48
2020/12/12 05:29:15;;;;;;;1.92;1.40;;;6.80;99.90;;;;;;5074941;28;20025;-49
2020/12/12 05:31:43;;;;;;;2.22;1.60;;;6.90;99.90;;;;;;5083317;28;20070;-50
2020/12/12 05:34:14;;;;;;;1.80;1.60;;;7.00;99.90;;;;;;5085921;28;20023;-48
2020/12/12 05:36:41;;;;;;;2.92;1.75;;;6.80;99.90;;;;;;5073834;28;20028;-48
2020/12/12 05:39:12;;;;;;;2.20;1.63;;;6.90;99.90;;;;;;5068485;28;20020;-51
2020/12/12 05:41:39;;;;;;;1.77;1.67;;;7.00;99.90;;;;;;5068443;28;20020;-49
2020/12/12 05:44:06;;;;;;;3.28;1.83;;;6.90;99.90;;;;;;5068052;28;20017;-49
2020/12/12 05:46:32;;;;;;;3.30;1.92;;;6.90;99.90;;;;;;5066390;28;20095;-50
2020/12/12 05:49:00;;;;;;;1.63;1.48;;;6.90;99.90;;;;;;5066351;28;20412;-52
2020/12/12 05:51:30;;;;;;;2.28;1.50;;;6.90;99.90;;;;;;5067631;28;20060;-51
2020/12/12 05:53:56;;;;;;;1.90;1.63;;;6.90;99.90;;;;;;5067520;28;20529;-50
2020/12/12 05:56:30;;;;;;;6.40;2.15;;;6.90;99.90;;;;;;5067321;28;20032;-48
2020/12/12 05:58:57;;;;;;;2.00;1.50;;;6.90;99.90;;;;;;5067489;28;20154;-48
2020/12/12 06:01:25;;;;;;;2.17;1.95;;;6.80;99.90;;;;;;5067595;28;20060;-50
2020/12/12 06:03:54;;;;;;;2.08;1.60;;;6.90;99.90;;;;;;5067136;28;20029;-49
2020/12/12 06:06:25;;;;;;;1.77;1.42;;;7.00;99.90;;;;;;5067463;28;20486;-50
2020/12/12 06:09:07;;;;;;;2.55;1.40;;;6.90;99.90;;;;;;5067120;28;20498;-48
2020/12/12 06:11:37;;;;;;;1.90;1.65;;;6.90;99.90;;;;;;5067194;28;20036;-50
2020/12/12 06:14:04;;;;;;;2.13;1.63;;;6.80;99.90;;;;;;5074826;28;20216;-50
2020/12/12 06:16:32;;;;;;;1.85;1.42;;;7.00;99.90;;;;;;5078490;28;20039;-48
2020/12/12 06:19:12;;;;;;;2.00;1.60;;;6.80;99.90;;;;;;5066864;28;20519;-48
2020/12/12 06:21:46;;;;;;;3.13;1.40;;;7.00;99.90;;;;;;5067520;28;20036;-49
2020/12/12 06:24:14;;;;;;;3.35;2.40;;;6.80;99.90;;;;;;5067171;28;20448;-51
2020/12/12 06:27:09;;;;;;;4.07;2.20;;;6.90;99.90;;;;;;5067354;28;20028;-50
2020/12/12 06:29:41;;;;;;;3.00;2.00;;;6.80;99.90;;;;;;5065888;28;20020;-49
2020/12/12 06:32:18;;;;;;;2.90;2.15;;;6.90;99.90;;;;;;5067296;28;20545;-50
2020/12/12 06:34:51;;;;;;;5.05;2.58;;;6.90;99.90;;;;;;5070770;28;20454;-52
2020/12/12 06:37:36;;;;;;;3.40;2.58;;;6.80;99.90;;;;;;5075138;28;20040;-48
2020/12/12 06:40:10;;;;;;;3.38;2.70;;;6.90;99.90;;;;;;5066763;28;20052;-50
2020/12/12 06:42:38;;;;;;;3.72;2.50;;;6.90;99.90;;;;;;5066458;28;20513;-48
2020/12/12 06:45:25;;;;;;;2.75;2.20;;;6.80;99.90;;;;;;5065320;28;20033;-49
2020/12/12 06:47:52;;;;;;;3.83;3.05;;;7.00;99.90;;;;;;5054665;28;20052;-47
2020/12/12 06:50:31;;;;;;;4.10;2.55;;;6.90;99.90;;;;;;5066765;28;20021;-51
2020/12/12 06:52:56;;;;;;;3.33;2.28;;;6.90;99.90;;;;;;5066500;28;20034;-49
2020/12/12 06:55:24;;;;;;;2.88;2.00;;;7.00;99.90;;;;;;5066120;28;20521;-51
2020/12/12 06:57:56;;;;;;;3.22;2.40;;;6.90;99.90;;;;;;5065779;28;20040;-51
2020/12/12 07:00:32;;;;;;;4.90;2.70;;;6.80;99.90;;;;;;5066210;28;20020;-52
2020/12/12 07:03:03;;;;;;;6.20;3.35;;;6.90;99.90;;;;;;5066293;28;20035;-52
2020/12/12 07:05:34;;;;;;;4.05;2.53;;;6.90;99.90;;;;;;5065749;28;20024;-50
2020/12/12 07:08:02;;;;;;;3.97;2.38;;;7.00;99.90;;;;;;5079600;28;20028;-51
2020/12/12 07:10:29;;;;;;;3.20;2.10;;;6.90;99.90;;;;;;5086684;28;20457;-48
2020/12/12 07:12:55;;;;;;;2.25;1.60;;;6.90;99.90;;;;;;5085924;28;20028;-49
2020/12/12 07:15:21;;;;;;;1.63;1.48;;;6.90;99.90;;;;;;5085254;28;20038;-49
2020/12/12 07:17:47;;;;;;;2.67;1.92;;;6.90;99.90;;;;;;5072399;28;20037;-51
2020/12/12 07:20:13;;;;;;;2.70;2.20;;;7.00;99.90;;;;;;5066257;28;20448;-49
2020/12/12 07:22:39;;;;;;;1.85;1.55;;;6.90;99.90;;;;;;5066540;28;20097;-49
2020/12/12 07:25:06;;;;;;;2.67;2.13;;;6.90;99.90;;;;;;5065262;28;20992;-49
2020/12/12 07:27:32;;;;;;;2.42;1.90;;;6.90;99.90;;;;;;5065416;28;20099;-48
2020/12/12 07:29:57;;;;;;;2.22;1.52;;;7.00;99.90;;;;;;5072923;28;20039;-50
2020/12/12 07:32:26;;;;;;;2.78;2.08;;;6.90;99.90;;;;;;5069502;28;20399;-49
2020/12/12 07:34:59;;;;;;;2.17;1.98;;;6.90;99.90;;;;;;5064999;28;20605;-52
2020/12/12 07:37:25;;;;;;;3.17;1.90;;;6.90;99.90;;;;;;5066297;28;20107;-51
2020/12/12 07:39:53;;;;;;;2.65;1.92;;;6.90;99.90;;;;;;5065203;28;20104;-51
2020/12/12 07:42:22;;;;;;;5.22;3.35;;;6.90;99.90;;;;;;5065707;28;20250;-50
2020/12/12 07:44:55;;;;;;;3.97;3.08;;;6.90;99.90;;;;;;5066031;28;20019;-49
2020/12/12 07:47:20;;;;;;;4.18;3.10;;;6.80;99.90;;;;;;5066109;28;20021;-48
2020/12/12 07:49:46;;;;;;;5.43;3.67;;;6.90;99.90;;;;;;5066289;28;20024;-51
2020/12/12 07:52:13;;;;;;;5.03;3.50;;;6.90;99.90;;;;;;5066774;28;20120;-48
2020/12/12 07:54:42;;;;;;;5.45;3.67;;;6.90;99.90;;;;;;5067055;28;20027;-49
2020/12/12 07:57:10;;;;;;;5.07;3.42;;;6.90;99.90;;;;;;5065783;28;20040;-51
2020/12/12 07:59:36;;;;;;;6.43;4.05;;;7.00;99.90;;;;;;5078018;28;20028;-47
2020/12/12 08:02:04;;;;;;;8.70;5.97;;;6.90;99.90;;;;;;5080611;28;20097;-49
2020/12/12 08:04:30;;;;;;;7.22;4.70;;;6.90;99.90;;;;;;5066526;28;20059;-47
2020/12/12 08:06:56;;;;;;;6.30;4.05;;;6.90;99.90;;;;;;5066143;28;20040;-49
2020/12/12 08:09:25;;;;;;;4.95;3.47;;;7.00;99.90;;;;;;5066771;28;20023;-48
2020/12/12 08:11:56;;;;;;;5.15;3.70;;;7.00;99.90;;;;;;5066152;28;20041;-49
2020/12/12 08:14:22;;;;;;;5.75;4.43;;;6.90;99.90;;;;;;5066188;28;20120;-47
2020/12/12 08:16:53;;;;;;;4.50;3.65;;;6.90;99.90;;;;;;5081652;28;20163;-49
2020/12/12 08:19:19;;;;;;;4.18;3.03;;;6.90;99.90;;;;;;5072394;28;20024;-47
2020/12/12 08:21:48;;;;;;;4.95;3.63;;;7.00;99.90;;;;;;5083504;28;20085;-47
2020/12/12 08:24:14;;;;;;;8.77;4.90;;;7.00;99.90;;;;;;5085731;28;20043;-47
2020/12/12 08:26:40;;;;;;;8.55;4.70;;;7.00;99.90;;;;;;5068831;28;20567;-47
2020/12/12 08:29:06;;;;;;;5.88;3.70;;;7.00;99.90;;;;;;5066793;28;20028;-47
2020/12/12 08:31:40;;;;;;;7.15;4.30;;;7.00;99.90;;;;;;5072989;28;20043;-47
2020/12/12 08:34:07;;;;;;;9.48;8.27;;;7.00;99.90;;;;;;5080063;28;20034;-47
2020/12/12 08:36:34;;;;;;;7.63;5.60;;;7.00;99.90;;;;;;5084735;28;20450;-49
2020/12/12 08:39:07;;;;;;;5.18;4.47;;;7.10;99.90;;;;;;5065387;28;20056;-47
2020/12/12 08:41:34;;;;;;;13.38;10.95;;;7.00;99.90;;;;;;5064465;28;20032;-47
2020/12/12 08:44:01;;;;;;;19.73;13.55;;;7.00;99.90;;;;;;5063571;28;20047;-47
2020/12/12 08:46:27;;;;;;;14.73;10.55;;;7.10;99.90;;;;;;5065257;28;20415;-48
2020/12/12 08:48:54;;;;;;;12.43;8.60;;;7.00;99.90;;;;;;5070904;28;20036;-50
2020/12/12 08:51:28;;;;;;;9.07;6.20;;;7.00;99.90;;;;;;5073106;28;20024;-47
2020/12/12 08:53:55;;;;;;;7.35;5.65;;;7.00;99.90;;;;;;5071367;28;20024;-48
2020/12/12 08:56:21;;;;;;;6.00;4.28;;;7.00;99.90;;;;;;5072701;28;20036;-47
2020/12/12 08:58:53;;;;;;;5.93;3.83;;;7.00;99.90;;;;;;5084138;28;20031;-48
2020/12/12 09:01:38;;;;;;;9.35;5.43;;;7.10;99.90;;;;;;5074598;28;20400;-47
2020/12/12 09:04:14;;;;;;;7.72;5.22;;;7.10;99.90;;;;;;5074537;28;20040;-48
2020/12/12 09:06:58;;;;;;;5.82;4.93;;;7.10;99.90;;;;;;5069972;28;20063;-47
2020/12/12 09:09:28;;;;;;;6.82;4.88;;;7.10;99.90;;;;;;5068071;28;20414;-48
2020/12/12 09:11:59;;;;;;;4.50;3.60;;;7.20;99.90;;;;;;5077461;28;20036;-47
2020/12/12 09:14:27;;;;;;;3.53;3.00;;;7.20;99.90;;;;;;5067004;28;20044;-49
2020/12/12 09:16:55;;;;;;;4.82;2.75;;;7.20;99.90;;;;;;5070814;28;20032;-47
2020/12/12 09:19:22;;;;;;;2.50;2.28;;;7.20;99.90;;;;;;5072401;28;20081;-50
2020/12/12 09:21:48;;;;;;;2.67;2.40;;;7.20;99.90;;;;;;5074589;28;20036;-49
2020/12/12 09:24:15;;;;;;;2.33;2.13;;;7.30;99.90;;;;;;5067903;28;20457;-48
2020/12/12 09:26:41;;;;;;;2.50;2.20;;;7.30;99.90;;;;;;5066813;28;20028;-48
2020/12/12 09:29:07;;;;;;;4.68;2.28;;;7.50;99.90;;;;;;5065209;28;20024;-48
2020/12/12 09:31:33;;;;;;;4.07;2.75;;;7.30;99.90;;;;;;5064947;28;20067;-47
2020/12/12 09:33:58;;;;;;;3.03;2.25;;;7.40;99.90;;;;;;5064710;28;20028;-48
2020/12/12 09:36:25;;;;;;;3.35;2.42;;;7.50;99.90;;;;;;5064918;28;20111;-47
2020/12/12 09:38:52;;;;;;;2.78;2.25;;;7.40;99.90;;;;;;5064518;28;20036;-47
2020/12/12 09:41:18;;;;;;;3.25;2.45;;;7.40;99.90;;;;;;5064907;28;20494;-48
2020/12/12 09:43:43;;;;;;;4.28;3.08;;;7.40;99.90;;;;;;5064984;28;20024;-47
2020/12/12 09:46:10;;;;;;;3.08;2.50;;;7.50;99.90;;;;;;5063358;28;20446;-51
2020/12/12 09:48:37;;;;;;;4.63;3.92;;;7.50;99.90;;;;;;5064588;28;20112;-47
2020/12/12 09:51:04;;;;;;;3.85;3.33;;;7.50;99.90;;;;;;5064894;28;20024;-50
2020/12/12 09:53:30;;;;;;;3.88;2.92;;;7.40;99.90;;;;;;5065510;28;20024;-48
2020/12/12 09:55:57;;;;;;;7.35;4.60;;;7.50;99.90;;;;;;5066097;28;20044;-47
2020/12/12 09:58:24;;;;;;;3.80;3.30;;;7.40;99.90;;;;;;5074240;28;20031;-47
2020/12/12 10:00:50;;;;;;;3.00;2.70;;;7.50;99.90;;;;;;5085866;28;20058;-47
2020/12/12 10:03:17;;;;;;;2.80;2.10;;;7.50;99.90;;;;;;5072786;28;20070;-47
2020/12/12 10:05:42;;;;;;;3.08;2.78;;;7.50;99.90;;;;;;5079640;28;20031;-51
2020/12/12 10:08:08;;;;;;;3.75;3.33;;;7.50;99.90;;;;;;5085814;28;20016;-49
2020/12/12 10:10:34;;;;;;;3.53;2.88;;;7.50;99.90;;;;;;5085888;28;20504;-50
2020/12/12 10:13:00;;;;;;;3.22;2.40;;;7.60;99.90;;;;;;5074878;28;20098;-49
2020/12/12 10:15:26;;;;;;;2.55;2.17;;;7.60;99.90;;;;;;5072258;28;20039;-49
2020/12/12 10:17:52;;;;;;;2.90;1.98;;;7.60;99.90;;;;;;5083940;28;20024;-47
2020/12/12 10:20:19;;;;;;;3.13;2.83;;;7.60;99.90;;;;;;5084869;28;20032;-48
2020/12/12 10:22:45;;;;;;;3.63;3.25;;;7.60;99.90;;;;;;5085505;28;20028;-47
2020/12/12 10:25:11;;;;;;;3.65;3.08;;;7.60;99.90;;;;;;5078910;28;20043;-48
2020/12/12 10:27:37;;;;;;;2.83;2.53;;;7.60;99.90;;;;;;5087992;28;20028;-48
2020/12/12 10:30:06;;;;;;;3.33;2.63;;;7.60;99.90;;;;;;5088229;28;20051;-48
2020/12/12 10:32:33;;;;;;;3.03;2.50;;;7.60;99.90;;;;;;5088142;28;20565;-48
2020/12/12 10:34:59;;;;;;;3.08;2.42;;;7.50;99.90;;;;;;5072217;28;20082;-48
2020/12/12 10:37:24;;;;;;;2.47;2.28;;;7.60;99.90;;;;;;5074392;28;20037;-48
2020/12/12 10:39:56;;;;;;;3.95;3.00;;;7.60;99.90;;;;;;5087820;28;20603;-47
2020/12/12 10:42:23;;;;;;;2.50;2.13;;;7.60;99.90;;;;;;5087751;28;20356;-47
2020/12/12 10:44:50;;;;;;;2.70;2.40;;;7.70;99.90;;;;;;5087282;28;20044;-48
2020/12/12 10:47:15;;;;;;;2.88;2.58;;;7.70;99.90;;;;;;5087833;28;20475;-48
2020/12/12 10:49:41;;;;;;;3.75;2.65;;;7.70;99.90;;;;;;5088235;28;20120;-50
2020/12/12 10:52:07;;;;;;;4.13;3.65;;;7.60;99.90;;;;;;5087729;28;20386;-51
2020/12/12 10:54:33;;;;;;;5.13;3.85;;;7.70;99.90;;;;;;5087714;28;20031;-50
2020/12/12 10:56:59;;;;;;;5.70;3.65;;;7.70;99.90;;;;;;5087034;28;20056;-49
2020/12/12 10:59:25;;;;;;;8.25;4.75;;;7.70;99.90;;;;;;5087170;28;20431;-48
2020/12/12 11:01:56;;;;;;;9.30;7.15;;;7.80;99.90;;;;;;5087184;28;20070;-49
2020/12/12 11:04:24;;;;;;;6.10;4.80;;;7.70;99.90;;;;;;5082851;28;20036;-51
2020/12/12 11:06:50;;;;;;;4.97;3.97;;;7.80;99.90;;;;;;5066897;28;20036;-49
2020/12/12 11:09:16;;;;;;;6.53;4.00;;;7.80;99.90;;;;;;5067229;28;20029;-49
2020/12/12 11:11:42;;;;;;;4.45;4.00;;;7.80;99.90;;;;;;5067759;28;20439;-51
2020/12/12 11:14:09;;;;;;;4.22;3.08;;;7.90;99.90;;;;;;5071907;28;20052;-48
2020/12/12 11:16:35;;;;;;;5.50;4.22;;;7.90;99.90;;;;;;5069076;28;20120;-51
2020/12/12 11:19:02;;;;;;;6.00;4.90;;;7.90;99.90;;;;;;5067000;28;20052;-50
2020/12/12 11:21:28;;;;;;;7.63;6.15;;;7.90;99.90;;;;;;5066976;28;20191;-50
2020/12/12 11:23:54;;;;;;;5.85;4.55;;;7.80;99.90;;;;;;5066593;28;20047;-51
2020/12/12 11:26:20;;;;;;;7.35;5.47;;;7.80;99.90;;;;;;5067003;28;20013;-51
2020/12/12 11:28:46;;;;;;;5.10;4.20;;;7.90;99.90;;;;;;5065972;28;20025;-52
2020/12/12 11:31:17;;;;;;;6.85;5.10;;;7.80;99.90;;;;;;5067870;28;20029;-49
2020/12/12 11:33:47;;;;;;;5.07;4.00;;;7.80;99.90;;;;;;5066696;28;20033;-49
2020/12/12 11:41:43;;;;;;;4.72;4.20;;;7.90;99.90;;;;;;5066326;28;20021;-48
2020/12/12 11:46:55;;;;;;;6.97;4.78;;;7.90;99.90;;;;;;5066256;28;20036;-50
2020/12/12 11:49:21;;;;;;;7.38;5.40;;;8.00;99.90;;;;;;5066217;28;20402;-51
2020/12/12 11:51:47;;;;;;;9.27;5.53;;;7.90;99.90;;;;;;5066669;28;20052;-51
2020/12/12 11:54:13;;;;;;;7.60;5.53;;;7.90;99.90;;;;;;5075093;28;20116;-52
2020/12/12 11:56:38;;;;;;;7.55;5.47;;;8.00;99.90;;;;;;5073750;28;20047;-48
2020/12/12 11:59:04;;;;;;;7.18;6.30;;;8.00;99.90;;;;;;5078173;28;20101;-49
2020/12/12 12:01:30;;;;;;;6.72;5.50;;;8.00;99.90;;;;;;5086648;28;20032;-52
2020/12/12 12:03:56;;;;;;;8.95;6.10;;;8.00;99.90;;;;;;5086637;28;20067;-50
2020/12/12 12:06:23;;;;;;;6.72;5.45;;;7.90;99.90;;;;;;5086165;28;20028;-50
2020/12/12 12:11:33;;;;;;;7.82;6.30;;;8.00;99.90;;;;;;5086666;28;20040;-49
2020/12/12 12:14:07;;;;;;;7.68;5.85;;;7.90;99.90;;;;;;5086726;28;20526;-50
2020/12/12 12:16:38;;;;;;;5.80;4.63;;;8.00;99.90;;;;;;5066936;28;20032;-49
2020/12/12 12:19:09;;;;;;;4.68;3.95;;;8.00;99.90;;;;;;5066366;28;20025;-50
2020/12/12 12:21:35;;;;;;;5.82;4.28;;;8.10;99.90;;;;;;5084579;28;21099;-50
2020/12/12 12:24:03;;;;;;;4.47;3.80;;;8.00;99.90;;;;;;5086025;28;20585;-48
2020/12/12 12:26:29;;;;;;;4.50;3.35;;;8.00;99.90;;;;;;5066507;28;20036;-48
2020/12/12 12:28:54;;;;;;;4.47;3.72;;;8.00;99.90;;;;;;5065593;28;20017;-49
2020/12/12 12:31:22;;;;;;;3.65;3.08;;;8.00;99.90;;;;;;5075221;28;20648;-47
2020/12/12 12:33:48;;;;;;;5.18;3.70;;;8.00;99.90;;;;;;5086008;28;20020;-50
2020/12/12 12:36:15;;;;;;;7.30;4.75;;;8.00;99.90;;;;;;5074728;28;20028;-47
2020/12/12 12:38:41;;;;;;;5.35;4.15;;;7.90;99.90;;;;;;5064924;28;20024;-47
2020/12/12 12:41:07;;;;;;;4.85;3.95;;;8.00;99.90;;;;;;5065122;28;20036;-49
2020/12/12 12:43:33;;;;;;;6.72;5.00;;;8.00;99.90;;;;;;5063332;28;20127;-48
2020/12/12 12:45:58;;;;;;;7.45;5.65;;;7.90;99.90;;;;;;5067708;28;20107;-48
2020/12/12 12:48:24;;;;;;;6.00;4.68;;;8.00;99.90;;;;;;5085458;28;20409;-49
2020/12/12 12:50:50;;;;;;;7.53;5.32;;;8.10;99.90;;;;;;5081990;28;20035;-51
2020/12/12 12:53:16;;;;;;;6.90;5.38;;;8.00;99.90;;;;;;5084214;28;20587;-47
2020/12/12 12:55:43;;;;;;;6.45;5.00;;;8.00;99.90;;;;;;5066463;28;20123;-50
2020/12/12 12:58:08;;;;;;;6.38;5.25;;;8.00;99.90;;;;;;5064118;28;20036;-50
2020/12/12 13:00:39;;;;;;;5.50;4.50;;;8.10;99.90;;;;;;5066213;28;20032;-49
2020/12/12 13:03:05;;;;;;;6.68;4.95;;;8.10;99.90;;;;;;5082589;28;20091;-49
2020/12/12 13:05:32;;;;;;;5.47;4.40;;;8.10;99.90;;;;;;5082541;28;20280;-48
2020/12/12 13:07:57;;;;;;;7.40;5.40;;;8.00;99.90;;;;;;5081094;28;20032;-50
2020/12/12 13:10:23;;;;;;;6.30;5.57;;;8.00;99.90;;;;;;5066317;28;20332;-48